Flight Track Log - Related Links

Times and Time Zones

All times are in EDT time to prevent confusion due to time zone crossing. See the EJA982 flight status page for this flight to view local times or setup timezone preferences in your user account.

Time Position Orientation Groundspeed Altitude Reporting Facility
EDT Latitude Longitude Course Direction KTS MPH feet Rate Location/Type
Fri 12:35:45 AM 33.1167 -117.3667 320° Northwest 240 276 3,500  Level Southern California TRACON
Fri 12:36:46 AM 33.1333 -117.4333 287° West 254 292 6,700 2,850 Climbing Southern California TRACON
Fri 12:37:45 AM 33.1667 -117.5167 296° West 290 334 9,200 1,584 Climbing Southern California TRACON
Fri 12:38:51 AM 33.2333 -117.6000 314° West 359 413 10,000 397 Climbing Southern California TRACON
Fri 12:39:46 AM 33.3000 -117.7000 309° West 408 470 10,000  Level Southern California TRACON
Fri 12:40:46 AM 33.3833 -117.7833 320° Northwest 401 461 10,000  Level Southern California TRACON
Fri 12:41:00 AM 33.4689 -117.6186 320° Northwest  Level FlightAware Approximate
Fri 12:41:52 AM 33.4667 -117.8833 315° West 382 440 10,000  Level Southern California TRACON
Fri 12:42:52 AM 33.5333 -117.9667 314° West 297 342 9,400 -1,000 Descending Southern California TRACON
Fri 12:43:46 AM 33.5833 -118.0167 320° Northwest 283 326 8,100 -1,533 Descending Southern California TRACON
Fri 12:44:22 AM 33.6111 -118.0492 316° Northwest 284 327 7,100 -1,818 Descending Los Angeles Center
Fri 12:44:52 AM 33.6500 -118.0833 324° Northwest 284 327 6,100 -667 Descending Southern California TRACON
Fri 12:45:52 AM 33.7000 -118.1500 312° West 269 310 6,100  Level Southern California TRACON
Fri 12:46:25 AM 33.7181 -118.1758 310° West 270 311 6,100 -63 Level Los Angeles Center
Fri 12:47:27 AM 33.7817 -118.2508 316° Northwest 272 313 6,000 -97 Descending Los Angeles Center
Fri 12:48:29 AM 33.8325 -118.3111 315° West 265 305 5,900 -484 Descending Los Angeles Center
Fri 12:49:31 AM 33.8794 -118.3678 315° West 249 287 5,000 -439 Descending Los Angeles Center
Fri 12:50:32 AM 33.9278 -118.4250 316° Northwest 245 282 5,000 49 Level Los Angeles Center
Fri 12:51:34 AM 33.9944 -118.4792 326° Northwest 261 300 5,100  Climbing Los Angeles Center
Fri 12:52:36 AM 34.0586 -118.5297 327° Northwest 256 295 5,000 -48 Descending Los Angeles Center
Fri 12:53:38 AM 34.1142 -118.5747 326° Northwest 243 280 5,000 -488 Level Los Angeles Center
Fri 12:54:39 AM 34.1722 -118.5833 353° North 224 258 4,000 -889 Descending Los Angeles Center
Fri 12:55:53 AM 34.2008 -118.5183 62° Northeast 207 238 3,000 -750 Descending Los Angeles Center
Fri 12:56:55 AM 34.1994 -118.4594 92° East 188 216 2,300 -726 Descending Los Angeles Center
Fri 12:57:57 AM 34.1983 -118.4144 92° East 161 185 1,500 -629 Descending Los Angeles Center
Fri 12:58:59 AM 34.1986 -118.3717 90° East 143 165 1,000 -484 Descending Los Angeles Center

Login

Don't have an account? Register now (free) for customized features, flight alerts, and more!